sensor_id;sensor_type;location;lat;lon;timestamp;pressure;altitude;pressure_sealevel;temperature;humidity
85166;BME280;75533;52.100;10.228;2024-01-30T00:00:36;101298.03;;;18.29;41.73
85166;BME280;75533;52.100;10.228;2024-01-30T00:03:01;101298.03;;;18.29;41.79
85166;BME280;75533;52.100;10.228;2024-01-30T00:05:27;101301.66;;;18.29;41.92
85166;BME280;75533;52.100;10.228;2024-01-30T00:07:52;101300.81;;;18.29;41.57
85166;BME280;75533;52.100;10.228;2024-01-30T00:10:17;101308.06;;;18.30;41.75
85166;BME280;75533;52.100;10.228;2024-01-30T00:12:43;101303.94;;;18.26;41.71
85166;BME280;75533;52.100;10.228;2024-01-30T00:15:08;101291.84;;;18.19;42.04
85166;BME280;75533;52.100;10.228;2024-01-30T00:17:38;101297.72;;;18.24;41.80
85166;BME280;75533;52.100;10.228;2024-01-30T00:20:03;101296.88;;;18.23;41.78
85166;BME280;75533;52.100;10.228;2024-01-30T00:22:31;101293.25;;;18.23;41.84
85166;BME280;75533;52.100;10.228;2024-01-30T00:24:57;101299.97;;;18.20;41.99
85166;BME280;75533;52.100;10.228;2024-01-30T00:27:22;101294.09;;;18.23;41.83
85166;BME280;75533;52.100;10.228;2024-01-30T00:29:48;101304.44;;;18.21;41.77
85166;BME280;75533;52.100;10.228;2024-01-30T00:32:14;101293.41;;;18.21;41.71
85166;BME280;75533;52.100;10.228;2024-01-30T00:34:41;101299.97;;;18.20;41.87
85166;BME280;75533;52.100;10.228;2024-01-30T00:37:06;101285.66;;;18.17;41.93
85166;BME280;75533;52.100;10.228;2024-01-30T00:39:32;101295.31;;;18.21;41.63
85166;BME280;75533;52.100;10.228;2024-01-30T00:41:57;101299.09;;;18.20;41.94
85166;BME280;75533;52.100;10.228;2024-01-30T00:44:22;101297.38;;;18.19;41.92
85166;BME280;75533;52.100;10.228;2024-01-30T00:46:48;101298.25;;;18.19;41.99
85166;BME280;75533;52.100;10.228;2024-01-30T00:49:14;101291.38;;;18.15;41.81
85166;BME280;75533;52.100;10.228;2024-01-30T00:51:39;101290.19;;;18.10;41.65
85166;BME280;75533;52.100;10.228;2024-01-30T00:54:04;101297.75;;;18.16;41.77
85166;BME280;75533;52.100;10.228;2024-01-30T00:56:31;101298.78;;;18.15;41.81
85166;BME280;75533;52.100;10.228;2024-01-30T00:58:56;101295.53;;;18.11;42.06
85166;BME280;75533;52.100;10.228;2024-01-30T01:01:22;101294.31;;;18.14;41.82
85166;BME280;75533;52.100;10.228;2024-01-30T01:03:47;101295.34;;;18.13;41.64
85166;BME280;75533;52.100;10.228;2024-01-30T01:06:13;101305.56;;;18.12;41.82
85166;BME280;75533;52.100;10.228;2024-01-30T01:08:39;101308.13;;;18.14;41.76
85166;BME280;75533;52.100;10.228;2024-01-30T01:11:04;101303.66;;;18.13;41.87
85166;BME280;75533;52.100;10.228;2024-01-30T01:13:30;101300.22;;;18.11;41.54
85166;BME280;75533;52.100;10.228;2024-01-30T01:15:55;101302.97;;;18.11;41.80
85166;BME280;75533;52.100;10.228;2024-01-30T01:18:20;101302.13;;;18.10;41.87
85166;BME280;75533;52.100;10.228;2024-01-30T01:20:46;101306.59;;;18.11;41.73
85166;BME280;75533;52.100;10.228;2024-01-30T01:23:11;101304.88;;;18.10;42.00
85166;BME280;75533;52.100;10.228;2024-01-30T01:25:36;101305.06;;;18.09;41.90
85166;BME280;75533;52.100;10.228;2024-01-30T01:28:02;101305.59;;;18.04;41.80
85166;BME280;75533;52.100;10.228;2024-01-30T01:30:28;101298.00;;;18.06;41.99
85166;BME280;75533;52.100;10.228;2024-01-30T01:32:54;101299.22;;;18.04;41.67
85166;BME280;75533;52.100;10.228;2024-01-30T01:35:25;101299.91;;;18.06;41.85
85166;BME280;75533;52.100;10.228;2024-01-30T01:37:52;101301.78;;;18.05;41.66
85166;BME280;75533;52.100;10.228;2024-01-30T01:40:23;101301.97;;;18.04;41.65
85166;BME280;75533;52.100;10.228;2024-01-30T01:42:53;101291.78;;;18.04;41.79
85166;BME280;75533;52.100;10.228;2024-01-30T01:45:19;101296.28;;;18.05;41.88
85166;BME280;75533;52.100;10.228;2024-01-30T01:47:47;101297.50;;;18.02;41.77
85166;BME280;75533;52.100;10.228;2024-01-30T01:50:13;101294.06;;;18.00;41.96
85166;BME280;75533;52.100;10.228;2024-01-30T01:52:40;101292.31;;;17.99;41.89
85166;BME280;75533;52.100;10.228;2024-01-30T01:55:06;101281.63;;;17.96;41.93
85166;BME280;75533;52.100;10.228;2024-01-30T01:57:33;101296.81;;;18.00;42.04
85166;BME280;75533;52.100;10.228;2024-01-30T02:00:00;101286.97;;;17.98;41.93
85166;BME280;75533;52.100;10.228;2024-01-30T02:02:26;101288.84;;;17.97;41.83
85166;BME280;75533;52.100;10.228;2024-01-30T02:04:56;101283.34;;;17.97;41.95
85166;BME280;75533;52.100;10.228;2024-01-30T02:07:21;101284.38;;;17.96;42.03
85166;BME280;75533;52.100;10.228;2024-01-30T02:09:47;101288.00;;;17.97;41.88
85166;BME280;75533;52.100;10.228;2024-01-30T02:12:12;101276.94;;;17.97;41.72
85166;BME280;75533;52.100;10.228;2024-01-30T02:14:47;101279.53;;;17.98;41.80
85166;BME280;75533;52.100;10.228;2024-01-30T02:17:13;101279.22;;;17.93;41.35
85166;BME280;75533;52.100;10.228;2024-01-30T02:19:39;101270.75;;;17.95;41.82
85166;BME280;75533;52.100;10.228;2024-01-30T02:22:05;101277.31;;;17.94;42.22
85166;BME280;75533;52.100;10.228;2024-01-30T02:24:30;101273.50;;;17.95;41.91
85166;BME280;75533;52.100;10.228;2024-01-30T02:26:56;101274.53;;;17.94;41.98
85166;BME280;75533;52.100;10.228;2024-01-30T02:29:21;101268.53;;;17.90;41.78
85166;BME280;75533;52.100;10.228;2024-01-30T02:31:47;101264.91;;;17.90;41.89
85166;BME280;75533;52.100;10.228;2024-01-30T02:34:12;101260.25;;;17.90;42.00
85166;BME280;75533;52.100;10.228;2024-01-30T02:36:38;101256.78;;;17.88;41.71
85166;BME280;75533;52.100;10.228;2024-01-30T02:39:03;101262.13;;;17.90;41.83
85166;BME280;75533;52.100;10.228;2024-01-30T02:41:29;101258.53;;;17.89;42.36
85166;BME280;75533;52.100;10.228;2024-01-30T02:43:54;101260.59;;;17.87;42.05
85166;BME280;75533;52.100;10.228;2024-01-30T02:46:19;101257.84;;;17.87;41.88
85166;BME280;75533;52.100;10.228;2024-01-30T02:48:45;101259.75;;;17.87;42.01
85166;BME280;75533;52.100;10.228;2024-01-30T02:51:10;101256.31;;;17.85;42.02
85166;BME280;75533;52.100;10.228;2024-01-30T02:53:35;101246.97;;;17.86;41.86
85166;BME280;75533;52.100;10.228;2024-01-30T02:56:02;101246.13;;;17.85;42.21
85166;BME280;75533;52.100;10.228;2024-01-30T02:58:28;101248.00;;;17.85;41.92
85166;BME280;75533;52.100;10.228;2024-01-30T03:00:53;101242.66;;;17.83;41.69
85166;BME280;75533;52.100;10.228;2024-01-30T03:03:18;101243.72;;;17.82;41.84
85166;BME280;75533;52.100;10.228;2024-01-30T03:05:44;101241.81;;;17.83;41.71
85166;BME280;75533;52.100;10.228;2024-01-30T03:08:09;101243.34;;;17.85;42.07
85166;BME280;75533;52.100;10.228;2024-01-30T03:10:35;101240.94;;;17.82;42.00
85166;BME280;75533;52.100;10.228;2024-01-30T03:13:01;101231.13;;;17.80;41.72
85166;BME280;75533;52.100;10.228;2024-01-30T03:15:26;101232.00;;;17.80;42.16
85166;BME280;75533;52.100;10.228;2024-01-30T03:17:53;101230.25;;;17.79;41.96
85166;BME280;75533;52.100;10.228;2024-01-30T03:20:18;101230.25;;;17.79;42.02
85166;BME280;75533;52.100;10.228;2024-01-30T03:22:44;101212.66;;;17.72;42.25
85166;BME280;75533;52.100;10.228;2024-01-30T03:25:10;101224.75;;;17.79;42.14
85166;BME280;75533;52.100;10.228;2024-01-30T03:27:35;101219.56;;;17.76;41.94
85166;BME280;75533;52.100;10.228;2024-01-30T03:30:00;101220.59;;;17.75;42.22
85166;BME280;75533;52.100;10.228;2024-01-30T03:32:26;101226.13;;;17.75;42.18
85166;BME280;75533;52.100;10.228;2024-01-30T03:34:51;101225.06;;;17.76;41.94
85166;BME280;75533;52.100;10.228;2024-01-30T03:37:17;101219.91;;;17.73;42.17
85166;BME280;75533;52.100;10.228;2024-01-30T03:39:42;101208.88;;;17.73;42.06
85166;BME280;75533;52.100;10.228;2024-01-30T03:42:07;101217.16;;;17.73;42.06
85166;BME280;75533;52.100;10.228;2024-01-30T03:44:32;101210.94;;;17.71;42.04
85166;BME280;75533;52.100;10.228;2024-01-30T03:46:58;101217.16;;;17.73;42.15
85166;BME280;75533;52.100;10.228;2024-01-30T03:49:23;101215.44;;;17.72;41.85
85166;BME280;75533;52.100;10.228;2024-01-30T03:51:49;101211.81;;;17.71;42.06
85166;BME280;75533;52.100;10.228;2024-01-30T03:54:14;101211.81;;;17.71;41.94
85166;BME280;75533;52.100;10.228;2024-01-30T03:56:40;101215.44;;;17.72;42.12
85166;BME280;75533;52.100;10.228;2024-01-30T03:59:05;101207.50;;;17.69;42.35
85166;BME280;75533;52.100;10.228;2024-01-30T04:01:30;101207.50;;;17.69;42.10
85166;BME280;75533;52.100;10.228;2024-01-30T04:03:56;101213.91;;;17.69;42.32
85166;BME280;75533;52.100;10.228;2024-01-30T04:06:21;101213.03;;;17.69;42.01
85166;BME280;75533;52.100;10.228;2024-01-30T04:08:47;101205.78;;;17.68;41.80
85166;BME280;75533;52.100;10.228;2024-01-30T04:11:12;101198.50;;;17.67;42.32
85166;BME280;75533;52.100;10.228;2024-01-30T04:13:37;101204.03;;;17.67;42.18
85166;BME280;75533;52.100;10.228;2024-01-30T04:16:03;101204.03;;;17.67;41.91
85166;BME280;75533;52.100;10.228;2024-01-30T04:18:29;101195.06;;;17.65;42.13
85166;BME280;75533;52.100;10.228;2024-01-30T04:20:54;101195.25;;;17.63;42.11
85166;BME280;75533;52.100;10.228;2024-01-30T04:23:19;101195.06;;;17.65;42.18
85166;BME280;75533;52.100;10.228;2024-01-30T04:25:45;101202.69;;;17.63;41.86
85166;BME280;75533;52.100;10.228;2024-01-30T04:28:10;101200.59;;;17.65;42.12
85166;BME280;75533;52.100;10.228;2024-01-30T04:30:38;101199.25;;;17.61;42.01
85166;BME280;75533;52.100;10.228;2024-01-30T04:33:04;101196.31;;;17.62;42.13
85166;BME280;75533;52.100;10.228;2024-01-30T04:35:29;101195.44;;;17.62;42.03
85166;BME280;75533;52.100;10.228;2024-01-30T04:37:55;101201.81;;;17.62;41.98
85166;BME280;75533;52.100;10.228;2024-01-30T04:40:21;101184.75;;;17.59;41.97
85166;BME280;75533;52.100;10.228;2024-01-30T04:42:46;101193.03;;;17.59;41.86
85166;BME280;75533;52.100;10.228;2024-01-30T04:45:12;101194.75;;;17.60;42.08
85166;BME280;75533;52.100;10.228;2024-01-30T04:47:37;101188.91;;;17.55;42.14
85166;BME280;75533;52.100;10.228;2024-01-30T04:50:04;101195.81;;;17.59;42.08
85166;BME280;75533;52.100;10.228;2024-01-30T04:52:30;101201.31;;;17.59;42.19
85166;BME280;75533;52.100;10.228;2024-01-30T04:54:55;101191.31;;;17.58;42.03
85166;BME280;75533;52.100;10.228;2024-01-30T04:57:20;101190.97;;;17.61;42.36
85166;BME280;75533;52.100;10.228;2024-01-30T04:59:46;101195.81;;;17.59;42.48
85166;BME280;75533;52.100;10.228;2024-01-30T05:02:11;101195.63;;;17.60;42.03
85166;BME280;75533;52.100;10.228;2024-01-30T05:04:36;101199.59;;;17.58;42.15
85166;BME280;75533;52.100;10.228;2024-01-30T05:07:02;101185.81;;;17.50;42.13
85166;BME280;75533;52.100;10.228;2024-01-30T05:09:27;101205.28;;;17.56;42.17
85166;BME280;75533;52.100;10.228;2024-01-30T05:11:53;101197.88;;;17.57;42.12
85166;BME280;75533;52.100;10.228;2024-01-30T05:14:18;101194.41;;;17.55;41.90
85166;BME280;75533;52.100;10.228;2024-01-30T05:16:44;101195.13;;;17.57;41.82
85166;BME280;75533;52.100;10.228;2024-01-30T05:19:13;101187.00;;;17.55;42.05
85166;BME280;75533;52.100;10.228;2024-01-30T05:21:39;101191.47;;;17.56;42.02
85166;BME280;75533;52.100;10.228;2024-01-30T05:24:04;101187.16;;;17.54;42.01
85166;BME280;75533;52.100;10.228;2024-01-30T05:26:30;101195.81;;;17.51;42.39
85166;BME280;75533;52.100;10.228;2024-01-30T05:28:56;101197.34;;;17.53;42.02
85166;BME280;75533;52.100;10.228;2024-01-30T05:31:22;101191.34;;;17.50;42.20
85166;BME280;75533;52.100;10.228;2024-01-30T05:33:47;101196.31;;;17.54;41.92
85166;BME280;75533;52.100;10.228;2024-01-30T05:36:13;101202.69;;;17.55;42.10
85166;BME280;75533;52.100;10.228;2024-01-30T05:38:39;101197.19;;;17.55;41.99
85166;BME280;75533;52.100;10.228;2024-01-30T05:41:04;101194.41;;;17.55;41.92
85166;BME280;75533;52.100;10.228;2024-01-30T05:43:29;101189.59;;;17.57;42.05
85166;BME280;75533;52.100;10.228;2024-01-30T05:45:55;101192.88;;;17.60;42.12
85166;BME280;75533;52.100;10.228;2024-01-30T05:48:20;101188.19;;;17.61;41.90
85166;BME280;75533;52.100;10.228;2024-01-30T05:50:46;101193.34;;;17.64;41.93
85166;BME280;75533;52.100;10.228;2024-01-30T05:53:11;101195.06;;;17.65;41.85
85166;BME280;75533;52.100;10.228;2024-01-30T05:55:37;101192.13;;;17.66;41.87
85166;BME280;75533;52.100;10.228;2024-01-30T05:58:02;101201.13;;;17.68;41.93
85166;BME280;75533;52.100;10.228;2024-01-30T06:00:29;101185.75;;;17.66;41.67
85166;BME280;75533;52.100;10.228;2024-01-30T06:02:54;101202.47;;;17.73;41.55
85166;BME280;75533;52.100;10.228;2024-01-30T06:05:20;101188.50;;;17.66;41.70
85166;BME280;75533;52.100;10.228;2024-01-30T06:07:45;101205.06;;;17.74;41.77
85166;BME280;75533;52.100;10.228;2024-01-30T06:10:10;101195.56;;;17.77;41.78
85166;BME280;75533;52.100;10.228;2024-01-30T06:12:36;101190.56;;;17.80;41.50
85166;BME280;75533;52.100;10.228;2024-01-30T06:15:01;101195.72;;;17.83;41.57
85166;BME280;75533;52.100;10.228;2024-01-30T06:17:28;101192.59;;;17.86;41.53
85166;BME280;75533;52.100;10.228;2024-01-30T06:19:53;101192.41;;;17.88;41.35
85166;BME280;75533;52.100;10.228;2024-01-30T06:22:18;101188.41;;;17.90;41.41
85166;BME280;75533;52.100;10.228;2024-01-30T06:24:43;101191.84;;;17.92;41.35
85166;BME280;75533;52.100;10.228;2024-01-30T06:27:15;101187.84;;;17.95;41.44
85166;BME280;75533;52.100;10.228;2024-01-30T06:29:42;101191.09;;;17.98;41.16
85166;BME280;75533;52.100;10.228;2024-01-30T06:32:08;101183.34;;;18.02;41.08
85166;BME280;75533;52.100;10.228;2024-01-30T06:34:33;101181.63;;;18.01;41.34
85166;BME280;75533;52.100;10.228;2024-01-30T06:36:58;101182.13;;;18.05;41.21
85166;BME280;75533;52.100;10.228;2024-01-30T06:39:24;101182.78;;;18.07;41.33
85166;BME280;75533;52.100;10.228;2024-01-30T06:41:50;101188.81;;;18.10;41.03
85166;BME280;75533;52.100;10.228;2024-01-30T06:44:15;101183.09;;;18.12;41.19
85166;BME280;75533;52.100;10.228;2024-01-30T06:46:41;101180.69;;;18.09;40.89
85166;BME280;75533;52.100;10.228;2024-01-30T06:49:06;101188.25;;;18.15;40.92
85166;BME280;75533;52.100;10.228;2024-01-30T06:51:31;101184.25;;;18.17;40.88
85166;BME280;75533;52.100;10.228;2024-01-30T06:53:57;101178.53;;;18.19;40.85
85166;BME280;75533;52.100;10.228;2024-01-30T06:56:22;101175.59;;;18.20;41.04
85166;BME280;75533;52.100;10.228;2024-01-30T06:58:48;101174.00;;;18.26;40.92
85166;BME280;75533;52.100;10.228;2024-01-30T07:01:14;101166.41;;;18.28;40.80
85166;BME280;75533;52.100;10.228;2024-01-30T07:03:39;101171.91;;;18.28;40.98
85166;BME280;75533;52.100;10.228;2024-01-30T07:06:05;101172.59;;;18.30;40.76
85166;BME280;75533;52.100;10.228;2024-01-30T07:08:30;101167.75;;;18.32;40.91
85166;BME280;75533;52.100;10.228;2024-01-30T07:10:55;101169.06;;;18.36;40.92
85166;BME280;75533;52.100;10.228;2024-01-30T07:13:21;101162.69;;;18.36;40.82
85166;BME280;75533;52.100;10.228;2024-01-30T07:15:46;101155.63;;;18.33;40.74
85166;BME280;75533;52.100;10.228;2024-01-30T07:18:12;101153.66;;;18.42;40.68
85166;BME280;75533;52.100;10.228;2024-01-30T07:20:39;101164.16;;;18.46;40.57
85166;BME280;75533;52.100;10.228;2024-01-30T07:23:11;101164.84;;;18.48;40.69
85166;BME280;75533;52.100;10.228;2024-01-30T07:25:39;101163.41;;;18.52;40.30
85166;BME280;75533;52.100;10.228;2024-01-30T07:28:07;101164.75;;;18.56;40.53
85166;BME280;75533;52.100;10.228;2024-01-30T07:30:32;101172.00;;;18.57;40.39
85166;BME280;75533;52.100;10.228;2024-01-30T07:32:57;101178.72;;;18.63;40.38
85166;BME280;75533;52.100;10.228;2024-01-30T07:35:23;101169.38;;;18.64;40.26
85166;BME280;75533;52.100;10.228;2024-01-30T07:37:48;101164.34;;;18.68;40.19
85166;BME280;75533;52.100;10.228;2024-01-30T07:40:13;101174.38;;;18.69;40.16
85166;BME280;75533;52.100;10.228;2024-01-30T07:42:39;101172.28;;;18.71;40.23
85166;BME280;75533;52.100;10.228;2024-01-30T07:45:05;101167.78;;;18.70;40.16
85166;BME280;75533;52.100;10.228;2024-01-30T07:47:30;101167.41;;;18.73;40.22
85166;BME280;75533;52.100;10.228;2024-01-30T07:49:55;101164.25;;;18.76;40.07
85166;BME280;75533;52.100;10.228;2024-01-30T07:52:21;101168.75;;;18.77;40.12
85166;BME280;75533;52.100;10.228;2024-01-30T07:54:46;101151.47;;;18.75;40.59
85166;BME280;75533;52.100;10.228;2024-01-30T07:57:11;101165.22;;;18.83;40.10
85166;BME280;75533;52.100;10.228;2024-01-30T07:59:37;101156.53;;;18.86;40.16
85166;BME280;75533;52.100;10.228;2024-01-30T08:02:02;101154.81;;;18.85;40.21
85166;BME280;75533;52.100;10.228;2024-01-30T08:04:27;101162.06;;;18.86;40.24
85166;BME280;75533;52.100;10.228;2024-01-30T08:06:53;101160.16;;;18.86;40.20
85166;BME280;75533;52.100;10.228;2024-01-30T08:09:18;101163.63;;;18.88;40.07
85166;BME280;75533;52.100;10.228;2024-01-30T08:11:43;101170.69;;;18.91;40.04
85166;BME280;75533;52.100;10.228;2024-01-30T08:14:09;101165.16;;;18.91;40.22
85166;BME280;75533;52.100;10.228;2024-01-30T08:16:34;101159.25;;;18.94;40.15
85166;BME280;75533;52.100;10.228;2024-01-30T08:18:59;101161.81;;;18.96;39.99
85166;BME280;75533;52.100;10.228;2024-01-30T08:21:26;101166.09;;;18.98;40.13
85166;BME280;75533;52.100;10.228;2024-01-30T08:23:52;101158.84;;;18.97;39.93
85166;BME280;75533;52.100;10.228;2024-01-30T08:26:17;101167.81;;;18.99;40.13
85166;BME280;75533;52.100;10.228;2024-01-30T08:28:42;101162.28;;;18.99;40.16
85166;BME280;75533;52.100;10.228;2024-01-30T08:31:10;101166.78;;;19.00;40.25
85166;BME280;75533;52.100;10.228;2024-01-30T08:33:35;101162.28;;;18.99;40.07
85166;BME280;75533;52.100;10.228;2024-01-30T08:36:01;101167.06;;;19.05;40.01
85166;BME280;75533;52.100;10.228;2024-01-30T08:38:26;101155.50;;;19.02;39.61
85166;BME280;75533;52.100;10.228;2024-01-30T08:40:51;101158.56;;;19.07;40.00
85166;BME280;75533;52.100;10.228;2024-01-30T08:43:16;101154.94;;;19.06;40.04
85166;BME280;75533;52.100;10.228;2024-01-30T08:45:42;101152.16;;;19.06;40.03
85166;BME280;75533;52.100;10.228;2024-01-30T08:48:07;101151.13;;;19.07;40.04
85166;BME280;75533;52.100;10.228;2024-01-30T08:50:33;101145.59;;;19.07;39.94
85166;BME280;75533;52.100;10.228;2024-01-30T08:52:58;101151.44;;;19.12;39.86
85166;BME280;75533;52.100;10.228;2024-01-30T08:55:24;101155.25;;;19.11;39.95
85166;BME280;75533;52.100;10.228;2024-01-30T08:57:49;101153.53;;;19.10;40.10
85166;BME280;75533;52.100;10.228;2024-01-30T09:00:14;101152.69;;;19.10;40.00
85166;BME280;75533;52.100;10.228;2024-01-30T09:02:40;101156.09;;;19.12;39.99
85166;BME280;75533;52.100;10.228;2024-01-30T09:05:06;101160.78;;;19.11;40.09
85166;BME280;75533;52.100;10.228;2024-01-30T09:07:31;101157.81;;;19.13;40.10
85166;BME280;75533;52.100;10.228;2024-01-30T09:09:56;101156.50;;;19.09;40.02
85166;BME280;75533;52.100;10.228;2024-01-30T09:12:22;101149.91;;;19.10;40.21
85166;BME280;75533;52.100;10.228;2024-01-30T09:14:47;101146.09;;;19.11;40.32
85166;BME280;75533;52.100;10.228;2024-01-30T09:17:12;101144.66;;;19.15;40.18
85166;BME280;75533;52.100;10.228;2024-01-30T09:19:38;101143.13;;;19.12;40.07
85166;BME280;75533;52.100;10.228;2024-01-30T09:22:03;101136.53;;;19.13;40.03
85166;BME280;75533;52.100;10.228;2024-01-30T09:24:29;101145.91;;;19.12;40.22
85166;BME280;75533;52.100;10.228;2024-01-30T09:26:54;101131.84;;;19.14;40.13
85166;BME280;75533;52.100;10.228;2024-01-30T09:29:20;101134.91;;;19.19;40.10
85166;BME280;75533;52.100;10.228;2024-01-30T09:31:46;101140.06;;;19.22;39.92
85166;BME280;75533;52.100;10.228;2024-01-30T09:34:12;101146.84;;;19.19;39.91
85166;BME280;75533;52.100;10.228;2024-01-30T09:36:38;101146.84;;;19.19;39.93
85166;BME280;75533;52.100;10.228;2024-01-30T09:39:04;101154.47;;;19.17;39.99
85166;BME280;75533;52.100;10.228;2024-01-30T09:41:32;101154.28;;;19.19;40.00
85166;BME280;75533;52.100;10.228;2024-01-30T09:43:59;101163.44;;;19.19;40.14
85166;BME280;75533;52.100;10.228;2024-01-30T09:46:26;101160.00;;;19.17;39.97
85166;BME280;75533;52.100;10.228;2024-01-30T09:48:55;101153.16;;;19.13;40.44
85166;BME280;75533;52.100;10.228;2024-01-30T09:51:23;101167.25;;;19.18;40.21
85166;BME280;75533;52.100;10.228;2024-01-30T09:53:49;101170.69;;;19.20;40.21
85166;BME280;75533;52.100;10.228;2024-01-30T09:56:15;101162.59;;;19.19;40.12
85166;BME280;75533;52.100;10.228;2024-01-30T09:58:41;101165.16;;;19.20;40.24
85166;BME280;75533;52.100;10.228;2024-01-30T10:01:07;101163.44;;;19.19;40.39
85166;BME280;75533;52.100;10.228;2024-01-30T10:03:32;101150.19;;;19.15;40.26
85166;BME280;75533;52.100;10.228;2024-01-30T10:06:00;101154.94;;;19.21;40.27
85166;BME280;75533;52.100;10.228;2024-01-30T10:08:26;101154.09;;;19.20;40.32
85166;BME280;75533;52.100;10.228;2024-01-30T10:10:52;101152.19;;;19.21;40.39
85166;BME280;75533;52.100;10.228;2024-01-30T10:13:17;101154.56;;;19.24;40.31
85166;BME280;75533;52.100;10.228;2024-01-30T10:15:43;101152.00;;;19.22;40.21
85166;BME280;75533;52.100;10.228;2024-01-30T10:18:08;101152.00;;;19.22;40.26
85166;BME280;75533;52.100;10.228;2024-01-30T10:20:35;101140.44;;;19.19;40.20
85166;BME280;75533;52.100;10.228;2024-01-30T10:23:01;101151.59;;;19.26;40.15
85166;BME280;75533;52.100;10.228;2024-01-30T10:25:26;101152.47;;;19.26;40.19
85166;BME280;75533;52.100;10.228;2024-01-30T10:27:54;101152.47;;;19.26;40.63
85166;BME280;75533;52.100;10.228;2024-01-30T10:30:22;101146.91;;;19.26;40.38
85166;BME280;75533;52.100;10.228;2024-01-30T10:32:47;101150.53;;;19.27;40.28
85166;BME280;75533;52.100;10.228;2024-01-30T10:35:13;101145.88;;;19.27;40.38
85166;BME280;75533;52.100;10.228;2024-01-30T10:37:38;101153.31;;;19.27;40.30
85166;BME280;75533;52.100;10.228;2024-01-30T10:40:04;101155.69;;;19.30;40.21
85166;BME280;75533;52.100;10.228;2024-01-30T10:42:32;101149.50;;;19.28;40.35
85166;BME280;75533;52.100;10.228;2024-01-30T10:45:14;101146.53;;;19.29;40.30
85166;BME280;75533;52.100;10.228;2024-01-30T10:47:49;101132.41;;;19.24;40.36
85166;BME280;75533;52.100;10.228;2024-01-30T10:50:15;101151.72;;;19.32;40.23
85166;BME280;75533;52.100;10.228;2024-01-30T10:52:42;101148.09;;;19.32;40.29
85166;BME280;75533;52.100;10.228;2024-01-30T10:55:09;101147.91;;;19.33;40.29
85166;BME280;75533;52.100;10.228;2024-01-30T10:57:35;101141.50;;;19.33;40.22
85166;BME280;75533;52.100;10.228;2024-01-30T11:00:04;101128.69;;;19.32;40.38
85166;BME280;75533;52.100;10.228;2024-01-30T11:02:37;101120.75;;;19.29;40.24
85166;BME280;75533;52.100;10.228;2024-01-30T11:05:04;101121.25;;;19.32;40.34
85166;BME280;75533;52.100;10.228;2024-01-30T11:07:30;101119.34;;;19.33;40.14
85166;BME280;75533;52.100;10.228;2024-01-30T11:12:26;101117.25;;;19.35;40.18
85166;BME280;75533;52.100;10.228;2024-01-30T11:15:05;101107.03;;;19.35;40.09
85166;BME280;75533;52.100;10.228;2024-01-30T11:20:21;101117.03;;;19.36;40.25
85166;BME280;75533;52.100;10.228;2024-01-30T11:22:48;101107.88;;;19.36;40.38
85166;BME280;75533;52.100;10.228;2024-01-30T11:25:15;101103.19;;;19.36;40.30
85166;BME280;75533;52.100;10.228;2024-01-30T11:27:42;101109.59;;;19.37;40.30
85166;BME280;75533;52.100;10.228;2024-01-30T11:30:08;101105.69;;;19.31;40.49
85166;BME280;75533;52.100;10.228;2024-01-30T11:32:33;101113.22;;;19.37;40.40
85166;BME280;75533;52.100;10.228;2024-01-30T11:34:58;101090.22;;;19.37;40.29
85166;BME280;75533;52.100;10.228;2024-01-30T11:37:25;101092.13;;;19.36;40.38
85166;BME280;75533;52.100;10.228;2024-01-30T11:39:53;101079.63;;;19.26;40.44
85166;BME280;75533;52.100;10.228;2024-01-30T11:42:19;101085.72;;;19.36;40.44
85166;BME280;75533;52.100;10.228;2024-01-30T11:44:48;101080.19;;;19.36;40.45
85166;BME280;75533;52.100;10.228;2024-01-30T11:47:14;101084.00;;;19.35;40.55
85166;BME280;75533;52.100;10.228;2024-01-30T11:49:39;101076.56;;;19.35;40.39
85166;BME280;75533;52.100;10.228;2024-01-30T11:52:05;101084.00;;;19.35;40.45
85166;BME280;75533;52.100;10.228;2024-01-30T11:54:30;101084.00;;;19.35;40.50
85166;BME280;75533;52.100;10.228;2024-01-30T11:56:56;101090.41;;;19.35;40.40
85166;BME280;75533;52.100;10.228;2024-01-30T11:59:21;101084.19;;;19.33;40.48
85166;BME280;75533;52.100;10.228;2024-01-30T12:01:46;101089.53;;;19.35;40.45
85166;BME280;75533;52.100;10.228;2024-01-30T12:04:12;101094.22;;;19.34;40.47
85166;BME280;75533;52.100;10.228;2024-01-30T12:06:38;101091.25;;;19.36;40.48
85166;BME280;75533;52.100;10.228;2024-01-30T12:09:04;101089.53;;;19.35;40.61
85166;BME280;75533;52.100;10.228;2024-01-30T12:11:30;101087.84;;;19.34;40.39
85166;BME280;75533;52.100;10.228;2024-01-30T12:13:55;101087.84;;;19.34;40.64
85166;BME280;75533;52.100;10.228;2024-01-30T12:16:21;101076.56;;;19.35;40.70
85166;BME280;75533;52.100;10.228;2024-01-30T12:18:47;101074.84;;;19.34;40.34
85166;BME280;75533;52.100;10.228;2024-01-30T12:21:16;101076.09;;;19.32;40.50
85166;BME280;75533;52.100;10.228;2024-01-30T12:23:41;101070.56;;;19.32;40.42
85166;BME280;75533;52.100;10.228;2024-01-30T12:26:07;101079.72;;;19.32;40.52
85166;BME280;75533;52.100;10.228;2024-01-30T12:28:33;101076.09;;;19.32;40.56
85166;BME280;75533;52.100;10.228;2024-01-30T12:31:03;101068.66;;;19.32;40.43
85166;BME280;75533;52.100;10.228;2024-01-30T12:33:29;101066.72;;;19.33;40.52
85166;BME280;75533;52.100;10.228;2024-01-30T12:35:56;101056.72;;;19.32;40.56
85166;BME280;75533;52.100;10.228;2024-01-30T12:38:22;101065.88;;;19.32;40.68